Time;durP1;ratioP1;P1;durP2;ratioP2;P2;SDS_P1;SDS_P2;PMS_P1;PMS_P2;Temp;Humidity;BMP_temperature;BMP_pressure;BME280_temperature;BME280_humidity;BME280_pressure;Samples;Min_cycle;Max_cycle;Signal;HPM_P1;HPM_P2
2022/08/22 00:00:11;;;;;;;2.20;1.50;;;18.50;65.90;;;;;;4987822;28;20119;-83
2022/08/22 00:02:43;;;;;;;5.20;2.63;;;18.40;65.60;;;;;;4982854;28;20092;-84
2022/08/22 00:05:12;;;;;;;3.58;1.73;;;18.30;65.70;;;;;;4970842;28;20028;-84
2022/08/22 00:07:46;;;;;;;2.28;1.50;;;18.30;66.20;;;;;;4969433;28;20161;-85
2022/08/22 00:10:23;;;;;;;2.20;1.55;;;18.30;66.60;;;;;;4978839;28;20632;-84
2022/08/22 00:12:58;;;;;;;4.40;1.65;;;18.20;66.80;;;;;;4975165;28;20026;-84
2022/08/22 00:15:31;;;;;;;5.60;1.77;;;18.20;67.10;;;;;;4968544;28;20120;-84
2022/08/22 00:17:56;;;;;;;8.43;2.30;;;18.10;67.20;;;;;;4967678;28;20046;-83
2022/08/22 00:20:35;;;;;;;5.43;2.92;;;18.10;67.50;;;;;;5006397;28;20083;-85
2022/08/22 00:23:24;;;;;;;4.95;2.53;;;18.10;67.60;;;;;;4981124;28;20034;-84
2022/08/22 00:26:20;;;;;;;2.47;1.60;;;18.00;67.40;;;;;;4976174;28;20140;-84
2022/08/22 00:29:06;;;;;;;7.35;3.35;;;17.90;67.90;;;;;;4976566;28;20779;-83
2022/08/22 00:31:36;;;;;;;8.02;2.88;;;17.80;67.70;;;;;;4985514;28;20544;-83
2022/08/22 00:34:05;;;;;;;6.20;2.88;;;17.80;67.50;;;;;;4979213;28;20049;-84
2022/08/22 00:36:36;;;;;;;6.13;2.70;;;17.60;67.80;;;;;;5004638;28;20042;-83
2022/08/22 00:39:16;;;;;;;3.15;1.52;;;17.60;67.60;;;;;;4983995;28;20033;-84
2022/08/22 00:42:04;;;;;;;7.45;3.63;;;17.50;67.60;;;;;;5000810;28;20132;-82
2022/08/22 00:45:07;;;;;;;2.20;1.70;;;17.30;68.80;;;;;;4990754;28;20029;-83
2022/08/22 00:48:10;;;;;;;6.05;2.80;;;17.30;68.10;;;;;;4993795;28;20052;-83
2022/08/22 00:50:48;;;;;;;5.57;3.13;;;17.20;68.10;;;;;;5008356;28;20525;-83
2022/08/22 00:53:35;;;;;;;7.53;3.03;;;17.20;68.30;;;;;;5002061;28;20066;-83
2022/08/22 00:56:25;;;;;;;6.40;3.13;;;17.20;68.40;;;;;;4986299;28;20129;-84
2022/08/22 00:59:28;;;;;;;6.57;3.20;;;17.10;68.30;;;;;;4993500;28;20062;-83
2022/08/22 01:02:15;;;;;;;7.50;3.28;;;17.10;68.50;;;;;;4989508;28;20033;-83
2022/08/22 01:05:08;;;;;;;6.68;3.25;;;17.10;68.90;;;;;;4985814;28;20034;-82
2022/08/22 01:07:57;;;;;;;7.07;3.60;;;17.00;70.00;;;;;;4989053;28;20085;-83
2022/08/22 01:10:41;;;;;;;6.22;3.25;;;16.90;69.60;;;;;;4975553;28;20141;-82
2022/08/22 01:13:09;;;;;;;5.22;3.28;;;16.80;69.00;;;;;;4969981;28;20481;-83
2022/08/22 01:15:35;;;;;;;12.68;3.53;;;16.60;71.80;;;;;;5002067;28;20506;-82
2022/08/22 01:18:28;;;;;;;10.27;4.00;;;16.40;72.30;;;;;;4976981;28;20091;-82
2022/08/22 01:21:16;;;;;;;9.80;3.60;;;16.50;73.00;;;;;;4984651;28;20061;-83
2022/08/22 01:24:06;;;;;;;5.72;4.03;;;16.50;72.60;;;;;;4970985;28;20049;-83
2022/08/22 01:26:47;;;;;;;5.78;4.47;;;16.40;71.10;;;;;;4987881;28;20034;-83
2022/08/22 01:29:45;;;;;;;7.20;4.30;;;16.40;71.90;;;;;;4985256;28;20057;-82
2022/08/22 01:32:29;;;;;;;5.07;3.80;;;16.30;72.50;;;;;;4974292;28;20502;-83
2022/08/22 01:35:14;;;;;;;6.32;3.97;;;16.30;72.50;;;;;;4985007;28;20520;-82
2022/08/22 01:38:18;;;;;;;11.48;4.05;;;16.20;73.60;;;;;;4969511;28;20498;-82
2022/08/22 01:41:21;;;;;;;6.63;4.30;;;16.20;73.50;;;;;;4981374;28;20034;-83
2022/08/22 01:44:01;;;;;;;9.75;4.80;;;16.10;75.60;;;;;;4989971;28;20846;-83
2022/08/22 01:46:32;;;;;;;12.43;4.90;;;16.00;75.50;;;;;;4989330;28;20411;-83
2022/08/22 01:49:56;;;;;;;6.40;4.63;;;16.00;77.60;;;;;;4965361;28;20107;-82
2022/08/22 01:52:35;;;;;;;8.07;4.30;;;16.10;84.40;;;;;;4873862;29;20032;-82
2022/08/22 01:55:08;;;;;;;13.38;5.45;;;16.10;74.60;;;;;;4892763;29;20035;-82
2022/08/22 01:57:51;;;;;;;5.63;4.75;;;16.10;77.00;;;;;;4933193;28;20114;-83
2022/08/22 02:00:17;;;;;;;7.43;4.63;;;16.00;77.70;;;;;;4956188;28;20030;-82
2022/08/22 02:02:55;;;;;;;6.30;4.30;;;15.90;78.40;;;;;;4985365;28;20509;-82
2022/08/22 02:05:30;;;;;;;7.53;4.68;;;15.80;82.40;;;;;;4991618;28;20729;-83
2022/08/22 02:08:03;;;;;;;8.13;5.00;;;15.70;85.80;;;;;;4957617;28;20133;-83
2022/08/22 02:10:47;;;;;;;7.25;4.97;;;15.70;83.30;;;;;;4980930;28;20030;-82
2022/08/22 02:13:13;;;;;;;8.25;4.55;;;15.80;85.70;;;;;;4988839;28;20061;-82
2022/08/22 02:15:38;;;;;;;5.78;3.80;;;15.80;83.50;;;;;;4990573;28;20062;-83
2022/08/22 02:18:04;;;;;;;5.55;4.13;;;15.80;90.40;;;;;;4984789;28;20096;-83
2022/08/22 02:21:04;;;;;;;7.65;4.43;;;15.70;92.70;;;;;;4999294;28;20038;-83
2022/08/22 02:23:48;;;;;;;10.52;4.53;;;15.70;93.00;;;;;;4961184;28;20026;-83
2022/08/22 02:26:26;;;;;;;7.80;4.78;;;15.70;90.30;;;;;;4985338;28;20033;-82
2022/08/22 02:28:54;;;;;;;5.53;3.05;;;15.60;86.10;;;;;;4976794;28;20072;-82
2022/08/22 02:31:27;;;;;;;2.40;2.15;;;15.70;84.20;;;;;;4968349;28;20122;-82
2022/08/22 02:33:57;;;;;;;6.28;3.10;;;15.60;83.60;;;;;;4982943;28;20502;-82
2022/08/22 02:36:33;;;;;;;4.70;2.50;;;15.60;83.60;;;;;;4983624;28;20030;-82
2022/08/22 02:39:17;;;;;;;;;;;15.50;82.80;;;;;;4983970;28;20037;-83
2022/08/22 02:41:50;;;;;;;5.57;2.60;;;15.50;83.10;;;;;;4980280;28;19914;-82
2022/08/22 02:44:20;;;;;;;3.58;3.25;;;15.60;83.30;;;;;;4967553;28;20513;-83
2022/08/22 02:46:48;;;;;;;13.65;4.25;;;15.50;82.50;;;;;;4982412;28;20033;-83
2022/08/22 02:49:14;;;;;;;12.10;4.93;;;15.50;82.80;;;;;;4988735;28;20425;-82
2022/08/22 02:51:50;;;;;;;11.38;5.55;;;15.40;90.00;;;;;;5003412;28;20022;-83
2022/08/22 02:54:22;;;;;;;10.68;5.82;;;15.40;91.60;;;;;;4985498;28;20117;-82
2022/08/22 02:56:57;;;;;;;5.72;4.70;;;15.30;92.40;;;;;;4988612;28;20132;-82
2022/08/22 02:59:26;;;;;;;9.98;5.88;;;15.20;95.00;;;;;;4953748;28;20039;-83
2022/08/22 03:01:51;;;;;;;10.82;5.72;;;15.20;95.50;;;;;;4999168;28;20037;-82
2022/08/22 03:04:26;;;;;;;7.55;5.55;;;15.10;96.40;;;;;;4970989;28;20106;-82
2022/08/22 03:07:19;;;;;;;7.63;6.40;;;15.20;96.30;;;;;;4987590;28;20129;-83
2022/08/22 03:09:56;;;;;;;9.57;5.57;;;15.10;97.30;;;;;;4967622;28;20110;-82
2022/08/22 03:12:41;;;;;;;7.18;5.22;;;15.00;97.00;;;;;;4970653;28;20401;-82
2022/08/22 03:15:18;;;;;;;8.52;4.90;;;15.00;99.20;;;;;;4965916;28;20045;-82
2022/08/22 03:17:51;;;;;;;3.55;3.25;;;15.10;93.70;;;;;;4980938;28;20026;-83
2022/08/22 03:20:37;;;;;;;6.65;3.22;;;15.20;92.20;;;;;;4967653;28;20145;-83
2022/08/22 03:23:34;;;;;;;4.10;2.90;;;15.20;91.90;;;;;;4973894;28;20608;-82
2022/08/22 03:26:12;;;;;;;4.40;2.97;;;15.10;91.60;;;;;;4966062;28;20053;-82
2022/08/22 03:28:48;;;;;;;6.40;3.55;;;15.00;91.30;;;;;;4952473;28;20120;-82
2022/08/22 03:31:16;;;;;;;7.53;4.20;;;15.00;92.20;;;;;;4955853;28;20044;-81
2022/08/22 03:33:42;;;;;;;12.50;5.55;;;14.90;95.00;;;;;;5002701;28;20105;-83
2022/08/22 03:36:23;;;;;;;7.00;5.25;;;14.80;97.80;;;;;;4971725;28;20113;-81
2022/08/22 03:38:57;;;;;;;9.15;4.85;;;14.80;93.30;;;;;;4951911;28;20071;-82
2022/08/22 03:42:01;;;;;;;13.57;5.18;;;14.80;93.10;;;;;;4966108;28;20113;-82
2022/08/22 03:45:07;;;;;;;6.88;4.22;;;14.80;92.10;;;;;;4983096;28;20034;-82
2022/08/22 03:47:47;;;;;;;3.85;3.20;;;14.90;92.00;;;;;;4940382;28;20042;-82
2022/08/22 03:50:38;;;;;;;4.05;2.80;;;14.90;91.90;;;;;;4986426;28;20486;-82
2022/08/22 03:53:20;;;;;;;5.07;2.70;;;14.80;92.00;;;;;;4978322;28;20056;-82
2022/08/22 03:56:06;;;;;;;5.55;2.50;;;14.80;92.00;;;;;;4955192;28;20042;-81
2022/08/22 03:58:38;;;;;;;3.17;2.58;;;14.80;92.10;;;;;;4969935;28;20490;-82
2022/08/22 04:01:51;;;;;;;3.90;2.53;;;14.80;92.40;;;;;;4991796;28;20034;-81
2022/08/22 04:04:47;;;;;;;7.65;3.75;;;14.80;92.30;;;;;;4923160;28;20031;-82
2022/08/22 04:07:32;;;;;;;4.93;3.78;;;14.60;92.10;;;;;;4927862;28;20172;-82
2022/08/22 04:10:19;;;;;;;10.20;4.70;;;14.60;92.60;;;;;;4979050;28;20029;-82
2022/08/22 04:13:06;;;;;;;8.73;5.72;;;14.50;92.90;;;;;;4990219;28;20034;-82
2022/08/22 04:16:10;;;;;;;10.13;5.68;;;14.50;95.30;;;;;;4977562;28;20144;-82
2022/08/22 04:18:57;;;;;;;6.80;5.15;;;14.40;96.90;;;;;;4982262;28;20610;-82
2022/08/22 04:21:27;;;;;;;7.85;6.05;;;14.30;98.00;;;;;;4968009;28;20034;-82
2022/08/22 04:24:19;;;;;;;12.35;6.30;;;14.20;98.40;;;;;;4986612;28;20073;-82
2022/08/22 04:27:19;;;;;;;9.18;5.95;;;14.30;97.70;;;;;;4990162;28;20035;-82
2022/08/22 04:29:57;;;;;;;9.32;6.15;;;14.20;98.10;;;;;;4970654;28;20033;-81
2022/08/22 04:32:50;;;;;;;15.60;6.65;;;14.10;98.00;;;;;;4986913;28;20028;-81
2022/08/22 04:35:24;;;;;;;11.32;7.03;;;14.20;98.90;;;;;;4961796;28;20394;-81
2022/08/22 04:37:51;;;;;;;7.68;6.35;;;14.20;98.70;;;;;;4984069;28;20481;-82
2022/08/22 04:40:27;;;;;;;9.55;7.57;;;14.20;99.90;;;;;;4971376;28;20033;-82
2022/08/22 04:42:57;;;;;;;12.82;7.32;;;14.30;99.90;;;;;;4982610;28;20038;-82
2022/08/22 04:45:26;;;;;;;12.32;7.10;;;14.20;97.10;;;;;;4971532;28;20120;-82
2022/08/22 04:47:53;;;;;;;10.57;6.88;;;14.20;96.60;;;;;;4990043;28;20045;-82
2022/08/22 04:50:28;;;;;;;11.30;8.10;;;14.30;99.50;;;;;;4970452;28;20034;-82
2022/08/22 04:53:15;;;;;;;12.07;8.13;;;14.40;99.90;;;;;;4970989;28;20533;-82
2022/08/22 04:56:11;;;;;;;10.25;6.78;;;14.30;99.10;;;;;;4989490;28;20053;-82
2022/08/22 04:59:02;;;;;;;11.45;7.47;;;14.40;97.80;;;;;;5004225;28;20517;-82
2022/08/22 05:01:57;;;;;;;10.27;7.72;;;14.50;97.70;;;;;;4987522;28;20030;-82
2022/08/22 05:04:26;;;;;;;23.60;9.13;;;14.60;97.90;;;;;;4970761;28;20032;-81
2022/08/22 05:06:56;;;;;;;13.90;8.20;;;14.60;98.10;;;;;;4969167;28;20030;-81
2022/08/22 05:09:25;;;;;;;10.77;8.27;;;14.70;97.50;;;;;;4977192;28;20030;-81
2022/08/22 05:11:52;;;;;;;9.60;7.75;;;14.80;98.30;;;;;;4986058;28;20030;-81
2022/08/22 05:14:24;;;;;;;9.65;7.80;;;14.80;98.20;;;;;;4971347;28;20029;-81
2022/08/22 05:16:51;;;;;;;10.65;8.07;;;14.90;98.80;;;;;;4953579;28;20031;-81
2022/08/22 05:19:19;;;;;;;13.27;8.18;;;14.90;96.80;;;;;;4978330;28;20034;-81
2022/08/22 05:21:46;;;;;;;12.18;8.90;;;15.00;95.80;;;;;;4968475;28;20512;-81
2022/08/22 05:24:24;;;;;;;14.50;8.50;;;15.10;95.40;;;;;;4972786;28;20026;-81
2022/08/22 05:26:52;;;;;;;15.88;9.07;;;15.20;95.20;;;;;;4975985;28;20041;-81
2022/08/22 05:29:20;;;;;;;13.52;8.48;;;15.30;96.50;;;;;;4978142;28;20038;-81
2022/08/22 05:31:58;;;;;;;8.75;7.85;;;15.40;95.40;;;;;;4960527;28;20041;-81
2022/08/22 05:34:27;;;;;;;12.77;7.50;;;15.50;94.80;;;;;;4990863;28;20038;-81
2022/08/22 05:36:59;;;;;;;16.92;7.88;;;15.50;94.30;;;;;;4960940;28;20042;-81
2022/08/22 05:39:25;;;;;;;10.90;8.07;;;15.60;94.50;;;;;;4952948;28;20033;-82
2022/08/22 05:41:53;;;;;;;10.70;8.27;;;15.70;94.80;;;;;;4975388;28;20030;-82
2022/08/22 05:44:27;;;;;;;12.38;8.85;;;15.90;96.00;;;;;;4973663;28;20037;-81
2022/08/22 05:47:14;;;;;;;11.68;7.10;;;16.00;94.80;;;;;;4961216;28;20393;-82
2022/08/22 05:50:12;;;;;;;15.93;7.88;;;16.10;95.50;;;;;;4987448;28;20085;-81
2022/08/22 05:52:50;;;;;;;14.57;8.40;;;16.30;95.40;;;;;;4917986;28;20037;-81
2022/08/22 05:55:25;;;;;;;8.52;5.28;;;16.40;95.20;;;;;;4980912;28;20462;-82
2022/08/22 05:58:28;;;;;;;8.55;5.90;;;16.60;95.20;;;;;;4987968;28;20041;-82
2022/08/22 06:01:20;;;;;;;10.20;6.47;;;16.90;94.80;;;;;;4997909;28;20499;-81
2022/08/22 06:04:00;;;;;;;14.27;7.50;;;17.10;94.80;;;;;;4981875;28;20441;-82
2022/08/22 06:06:29;;;;;;;10.30;7.00;;;17.30;95.00;;;;;;4983949;28;20034;-81
2022/08/22 06:08:57;;;;;;;12.23;6.28;;;17.40;95.90;;;;;;4982988;28;20064;-82
2022/08/22 06:11:33;;;;;;;12.75;6.40;;;17.50;95.00;;;;;;4963150;28;20544;-84
2022/08/22 06:14:04;;;;;;;;;;;17.60;94.60;;;;;;4977564;28;20029;-84
2022/08/22 06:17:13;;;;;;;10.52;6.38;;;17.60;94.30;;;;;;4987742;28;19917;-84
2022/08/22 06:19:40;;;;;;;10.93;6.65;;;17.70;94.70;;;;;;4955938;28;20033;-84
2022/08/22 06:22:06;;;;;;;17.52;6.43;;;17.70;94.60;;;;;;4969291;28;20026;-84
2022/08/22 06:24:43;;;;;;;13.55;7.30;;;17.80;95.20;;;;;;4929525;28;10001102;-82
2022/08/22 06:27:11;;;;;;;16.30;6.93;;;17.90;95.60;;;;;;4971674;28;20231;-82
2022/08/22 06:29:41;;;;;;;10.13;7.85;;;17.90;95.60;;;;;;4970794;28;20085;-83
2022/08/22 06:32:12;;;;;;;10.60;4.65;;;18.00;95.00;;;;;;4955310;28;20065;-82
2022/08/22 06:34:40;;;;;;;14.35;6.38;;;18.10;94.10;;;;;;4979304;28;20066;-83
2022/08/22 06:37:08;;;;;;;10.80;8.25;;;18.20;94.10;;;;;;4970315;28;20034;-82
2022/08/22 06:39:39;;;;;;;11.68;7.57;;;18.30;94.60;;;;;;4986004;28;20045;-84
2022/08/22 06:42:09;;;;;;;6.20;4.97;;;18.30;95.20;;;;;;4969922;28;20080;-83
2022/08/22 06:44:47;;;;;;;13.98;6.70;;;18.40;94.40;;;;;;4933989;28;20078;-82
2022/08/22 06:47:41;;;;;;;12.88;6.68;;;18.50;94.00;;;;;;4984485;28;20041;-81
2022/08/22 06:50:12;;;;;;;21.00;8.55;;;18.60;94.20;;;;;;4976196;28;20033;-82
2022/08/22 06:53:09;;;;;;;11.70;7.30;;;18.60;94.60;;;;;;4958103;28;20039;-83
2022/08/22 06:55:36;;;;;;;7.63;4.68;;;18.70;94.00;;;;;;4957227;28;20045;-83
2022/08/22 06:58:22;;;;;;;13.05;7.90;;;18.80;93.30;;;;;;4971803;28;20564;-82
2022/08/22 07:00:52;;;;;;;14.65;8.25;;;18.90;93.90;;;;;;4970764;28;20401;-82
2022/08/22 07:03:44;;;;;;;10.18;7.55;;;18.90;93.90;;;;;;4940853;28;20030;-82
2022/08/22 07:06:14;;;;;;;9.27;7.05;;;19.00;93.20;;;;;;4979324;28;20117;-82
2022/08/22 07:08:41;;;;;;;16.85;7.80;;;19.10;93.40;;;;;;4956192;28;20900;-82
2022/08/22 07:11:36;;;;;;;12.43;7.88;;;19.20;93.60;;;;;;4955067;28;20034;-82
2022/08/22 07:14:08;;;;;;;9.98;6.88;;;19.30;94.90;;;;;;4984501;28;20037;-83
2022/08/22 07:16:48;;;;;;;9.30;5.25;;;19.40;93.70;;;;;;4963479;28;20508;-82
2022/08/22 07:19:29;;;;;;;16.83;7.55;;;19.60;93.00;;;;;;4952250;28;20033;-82
2022/08/22 07:21:56;;;;;;;15.38;7.70;;;19.90;95.50;;;;;;4964911;28;20035;-82
2022/08/22 07:24:27;;;;;;;8.88;4.85;;;20.20;94.50;;;;;;4949684;28;20775;-82
2022/08/22 07:27:07;;;;;;;16.38;7.70;;;20.40;93.30;;;;;;4964100;28;20029;-80
2022/08/22 07:29:37;;;;;;;11.57;8.50;;;20.70;93.60;;;;;;4986957;28;20038;-80
2022/08/22 07:32:15;;;;;;;10.05;6.70;;;21.10;95.00;;;;;;4974228;28;20445;-80
2022/08/22 07:35:09;;;;;;;9.98;5.22;;;21.30;93.90;;;;;;4984055;28;20362;-80
2022/08/22 07:37:40;;;;;;;9.23;5.25;;;21.70;92.70;;;;;;4968924;28;20413;-80
2022/08/22 07:40:09;;;;;;;12.55;8.45;;;22.00;93.40;;;;;;4984649;28;20472;-80
2022/08/22 07:42:47;;;;;;;11.73;7.10;;;22.50;95.00;;;;;;4987715;28;20041;-79
2022/08/22 07:45:31;;;;;;;17.38;6.28;;;22.90;94.70;;;;;;4968645;28;20100;-79
2022/08/22 07:48:11;;;;;;;12.73;6.35;;;23.10;94.00;;;;;;5003932;28;20049;-81
2022/08/22 07:51:01;;;;;;;11.70;5.40;;;23.40;93.90;;;;;;4997259;28;20120;-82
2022/08/22 07:53:33;;;;;;;16.83;6.95;;;23.70;93.70;;;;;;4990500;28;20038;-80
2022/08/22 07:55:59;;;;;;;11.70;5.35;;;24.00;93.40;;;;;;4955131;28;20030;-81
2022/08/22 07:58:26;;;;;;;10.45;4.22;;;24.20;92.80;;;;;;4987399;28;20604;-80
2022/08/22 08:00:52;;;;;;;8.95;4.15;;;24.40;92.30;;;;;;4955116;28;20038;-80
2022/08/22 08:03:20;;;;;;;7.47;4.95;;;24.40;92.30;;;;;;4987316;28;20137;-80
2022/08/22 08:05:46;;;;;;;6.93;3.28;;;24.60;92.00;;;;;;4982177;28;20030;-80
2022/08/22 08:08:19;;;;;;;8.80;4.25;;;24.80;91.80;;;;;;4973318;28;20522;-80
2022/08/22 08:10:45;;;;;;;9.10;5.20;;;25.00;91.80;;;;;;4952583;28;20026;-80
2022/08/22 08:13:24;;;;;;;8.43;4.20;;;25.20;91.50;;;;;;4981046;28;20102;-81
2022/08/22 08:15:50;;;;;;;8.20;4.75;;;25.40;91.10;;;;;;4972107;28;20038;-81
2022/08/22 08:18:20;;;;;;;8.90;4.60;;;25.60;90.60;;;;;;4958719;28;20404;-81
2022/08/22 08:20:51;;;;;;;6.35;3.72;;;25.90;89.20;;;;;;4968075;28;20036;-81
2022/08/22 08:23:18;;;;;;;9.65;4.30;;;25.90;88.30;;;;;;4952077;28;20026;-83
2022/08/22 08:25:51;;;;;;;4.80;2.80;;;25.80;87.80;;;;;;4953827;28;20030;-83
2022/08/22 08:28:36;;;;;;;7.72;3.15;;;26.00;85.30;;;;;;4981563;28;20033;-82
2022/08/22 08:31:26;;;;;;;7.32;3.53;;;26.00;86.30;;;;;;4973401;28;20473;-83
2022/08/22 08:34:17;;;;;;;9.98;3.95;;;25.90;84.50;;;;;;4983488;28;20523;-83
2022/08/22 08:36:47;;;;;;;7.43;2.75;;;26.10;86.40;;;;;;4978598;28;20042;-83
2022/08/22 08:39:32;;;;;;;14.05;5.72;;;26.40;85.60;;;;;;4975417;28;20038;-84
2022/08/22 08:42:16;;;;;;;7.85;3.13;;;26.90;84.20;;;;;;4964664;28;20053;-81
2022/08/22 08:45:01;;;;;;;5.88;3.55;;;27.00;82.80;;;;;;4992845;28;20432;-81
2022/08/22 08:47:41;;;;;;;10.32;4.60;;;26.90;81.60;;;;;;4970806;28;20038;-82
2022/08/22 08:50:07;;;;;;;10.15;5.22;;;26.90;83.80;;;;;;4983727;28;20128;-82
2022/08/22 08:53:10;;;;;;;14.40;5.15;;;27.60;82.30;;;;;;4989007;28;20560;-81
2022/08/22 08:56:11;;;;;;;7.75;4.57;;;28.10;78.80;;;;;;4988211;28;20545;-80
2022/08/22 08:58:59;;;;;;;7.20;3.17;;;28.10;78.60;;;;;;4963495;28;20033;-86
2022/08/22 09:01:43;;;;;;;10.82;4.13;;;28.00;74.40;;;;;;4990078;28;20034;-83
2022/08/22 09:04:46;;;;;;;3.17;2.17;;;28.30;78.00;;;;;;4985543;28;20088;-83
2022/08/22 09:07:31;;;;;;;8.48;2.45;;;28.40;75.50;;;;;;4997093;28;20138;-83
2022/08/22 09:10:22;;;;;;;5.82;2.22;;;28.70;74.50;;;;;;4997280;28;20037;-86
2022/08/22 09:13:23;;;;;;;8.52;2.00;;;28.80;71.30;;;;;;4969124;28;20018;-83
2022/08/22 09:16:10;;;;;;;5.20;2.25;;;28.80;69.10;;;;;;4972495;28;20030;-84
2022/08/22 09:18:54;;;;;;;3.25;1.55;;;28.80;69.10;;;;;;4995726;28;20042;-84
2022/08/22 09:21:23;;;;;;;6.18;2.15;;;28.70;70.10;;;;;;4987018;28;20061;-83
2022/08/22 09:24:22;;;;;;;4.85;2.00;;;28.90;67.80;;;;;;4992585;28;20034;-84
2022/08/22 09:26:51;;;;;;;7.68;2.45;;;29.10;64.40;;;;;;4987086;28;20033;-85
2022/08/22 09:29:28;;;;;;;3.78;1.83;;;29.10;62.80;;;;;;4612697;28;10000429;-83
2022/08/22 09:32:12;;;;;;;9.10;3.22;;;28.90;64.60;;;;;;4988052;28;20093;-83
2022/08/22 09:35:01;;;;;;;4.85;2.20;;;29.10;62.00;;;;;;4973782;28;20030;-84
2022/08/22 09:37:43;;;;;;;10.55;2.70;;;29.00;62.30;;;;;;4984766;28;20041;-84
2022/08/22 09:40:27;;;;;;;5.82;1.75;;;29.00;60.10;;;;;;4968926;28;20493;-85
2022/08/22 09:43:00;;;;;;;5.57;1.90;;;29.00;62.10;;;;;;4952876;28;20394;-83
2022/08/22 09:45:28;;;;;;;9.70;2.92;;;29.00;62.30;;;;;;4990300;28;20512;-84
2022/08/22 09:48:04;;;;;;;6.57;1.80;;;29.00;60.90;;;;;;4985223;28;20050;-83
2022/08/22 09:50:49;;;;;;;6.32;2.33;;;29.10;60.10;;;;;;4972314;28;20026;-85
2022/08/22 09:53:53;;;;;;;6.23;2.00;;;29.10;61.20;;;;;;4965359;28;20486;-83
2022/08/22 09:56:30;;;;;;;6.63;1.90;;;29.20;59.70;;;;;;4975805;28;20304;-83
2022/08/22 09:59:02;;;;;;;5.20;1.60;;;29.20;59.90;;;;;;4986053;28;20064;-83
2022/08/22 10:01:37;;;;;;;3.83;1.73;;;29.10;60.50;;;;;;4956585;28;20565;-84
2022/08/22 10:04:06;;;;;;;5.88;1.92;;;29.50;59.70;;;;;;4955452;28;20057;-83
2022/08/22 10:06:53;;;;;;;5.47;1.42;;;30.00;59.70;;;;;;4981972;28;20038;-83
2022/08/22 10:09:58;;;;;;;6.28;1.40;;;30.20;58.00;;;;;;4957847;28;20058;-83
2022/08/22 10:12:27;;;;;;;6.55;1.45;;;29.90;57.70;;;;;;4922284;28;20035;-82
2022/08/22 10:15:18;;;;;;;3.05;1.23;;;29.70;58.10;;;;;;4964132;28;20046;-83
2022/08/22 10:18:16;;;;;;;3.58;1.63;;;30.70;56.70;;;;;;5001656;28;20046;-83
2022/08/22 10:21:14;;;;;;;5.78;1.80;;;31.70;53.90;;;;;;4969580;28;20035;-83
2022/08/22 10:24:19;;;;;;;4.53;1.80;;;31.10;56.20;;;;;;4958993;28;20099;-83
2022/08/22 10:27:02;;;;;;;7.32;1.77;;;30.30;55.80;;;;;;4911709;29;20031;-84
2022/08/22 10:29:53;;;;;;;5.88;1.65;;;30.00;56.70;;;;;;4968782;28;20583;-83
2022/08/22 10:32:29;;;;;;;3.22;1.45;;;30.00;56.90;;;;;;4990150;28;20833;-83
2022/08/22 10:34:58;;;;;;;4.10;1.48;;;30.00;56.20;;;;;;4970262;28;20034;-82
2022/08/22 10:37:31;;;;;;;2.70;1.65;;;30.00;58.60;;;;;;4971257;28;20064;-83
2022/08/22 10:40:02;;;;;;;2.28;1.30;;;30.20;57.00;;;;;;4966156;28;20057;-82
2022/08/22 10:42:34;;;;;;;8.45;1.83;;;30.20;57.60;;;;;;4969454;28;20042;-82
2022/08/22 10:45:21;;;;;;;2.97;1.60;;;30.30;58.30;;;;;;4982186;28;20113;-83
2022/08/22 10:47:53;;;;;;;5.50;1.40;;;30.80;57.40;;;;;;4989910;28;20054;-83
2022/08/22 10:50:23;;;;;;;3.03;1.40;;;30.80;57.70;;;;;;4986584;28;20031;-82
2022/08/22 10:53:28;;;;;;;3.70;1.30;;;32.30;54.10;;;;;;4987616;28;20371;-81
2022/08/22 10:55:36;;;;;;;4.05;1.38;;;32.00;54.80;;;;;;4982918;28;20036;-82
2022/08/22 10:58:08;;;;;;;8.57;2.28;;;31.50;56.50;;;;;;4955996;28;20083;-81
2022/08/22 11:00:54;;;;;;;6.88;1.90;;;31.30;55.60;;;;;;4953499;28;20030;-81
2022/08/22 11:03:41;;;;;;;4.72;1.48;;;31.20;54.00;;;;;;4966490;28;20136;-81
2022/08/22 11:06:23;;;;;;;3.13;1.67;;;31.50;55.30;;;;;;4956777;28;20042;-81
2022/08/22 11:09:07;;;;;;;3.22;1.40;;;31.40;54.20;;;;;;4982674;28;20029;-81
2022/08/22 11:11:35;;;;;;;4.05;1.05;;;31.40;54.20;;;;;;4969327;28;20410;-81
2022/08/22 11:14:24;;;;;;;5.75;1.85;;;31.80;55.00;;;;;;5002266;28;20097;-81
2022/08/22 11:17:06;;;;;;;5.25;1.75;;;32.00;55.50;;;;;;4969668;28;20057;-81
2022/08/22 11:19:40;;;;;;;5.82;2.50;;;32.50;54.20;;;;;;4969066;28;20037;-81
2022/08/22 11:22:09;;;;;;;3.55;1.73;;;32.50;53.20;;;;;;4987572;28;20434;-81
2022/08/22 11:25:22;;;;;;;2.90;1.23;;;33.10;52.90;;;;;;4987872;28;20513;-81
2022/08/22 11:27:53;;;;;;;4.25;1.92;;;33.90;51.60;;;;;;4902992;28;20043;-81
2022/08/22 11:30:30;;;;;;;2.58;1.60;;;33.00;52.90;;;;;;4967122;28;20149;-81
2022/08/22 11:33:09;;;;;;;2.85;1.40;;;33.10;53.20;;;;;;5010783;28;20536;-82
2022/08/22 11:35:50;;;;;;;6.75;2.13;;;33.10;53.20;;;;;;4988615;28;20492;-81
2022/08/22 11:38:58;;;;;;;5.35;1.77;;;33.30;50.20;;;;;;4969943;28;20039;-81
2022/08/22 11:41:43;;;;;;;5.38;2.17;;;33.50;51.20;;;;;;4960568;28;20054;-80
2022/08/22 11:44:16;;;;;;;;;;;33.50;50.40;;;;;;4977016;28;20033;-84
2022/08/22 11:46:44;;;;;;;3.22;1.60;;;33.80;50.50;;;;;;4989428;28;20274;-80
2022/08/22 11:49:38;;;;;;;3.05;1.77;;;34.00;50.30;;;;;;4975539;28;20113;-81
2022/08/22 11:52:18;;;;;;;5.45;1.88;;;34.10;50.80;;;;;;5000886;28;20449;-81
2022/08/22 11:55:21;;;;;;;5.45;1.80;;;34.40;48.90;;;;;;5005623;28;21448;-81
2022/08/22 11:57:52;;;;;;;5.60;1.92;;;34.60;49.90;;;;;;5006755;28;20034;-82
2022/08/22 12:00:28;;;;;;;2.13;1.52;;;34.80;49.60;;;;;;4984569;28;20034;-83
2022/08/22 12:03:20;;;;;;;3.67;1.48;;;35.00;50.10;;;;;;4967351;28;20598;-81
2022/08/22 12:05:50;;;;;;;3.23;1.67;;;35.20;49.20;;;;;;4642251;28;10000198;-82
2022/08/22 12:08:39;;;;;;;3.03;1.83;;;35.30;48.40;;;;;;4972603;28;20261;-81
2022/08/22 12:11:24;;;;;;;3.30;1.75;;;35.50;48.50;;;;;;4954849;28;20030;-83
2022/08/22 12:13:54;;;;;;;3.13;1.45;;;35.70;48.70;;;;;;4973465;28;20045;-82
2022/08/22 12:16:26;;;;;;;3.65;1.50;;;36.00;48.20;;;;;;4988989;28;20037;-82
2022/08/22 12:18:54;;;;;;;5.20;1.83;;;36.30;45.00;;;;;;4987095;28;20034;-82
2022/08/22 12:22:02;;;;;;;4.47;2.15;;;36.30;46.20;;;;;;4987758;28;20088;-83
2022/08/22 12:24:58;;;;;;;4.05;1.90;;;36.50;44.60;;;;;;4988274;28;20056;-82
2022/08/22 12:27:37;;;;;;;4.45;1.42;;;36.40;44.80;;;;;;4966360;28;20113;-83
2022/08/22 12:30:57;;;;;;;6.10;2.22;;;36.40;45.50;;;;;;4966445;28;20050;-83
2022/08/22 12:33:36;;;;;;;3.17;1.83;;;36.60;45.20;;;;;;4949531;28;20034;-84
2022/08/22 12:36:22;;;;;;;4.05;1.48;;;36.80;43.40;;;;;;4990813;28;20034;-82
2022/08/22 12:39:08;;;;;;;5.57;1.77;;;36.80;43.80;;;;;;4994023;28;20082;-82
2022/08/22 12:41:55;;;;;;;4.65;1.67;;;36.70;44.40;;;;;;4986028;28;20034;-80
2022/08/22 12:44:36;;;;;;;7.35;2.20;;;36.80;45.20;;;;;;5006070;28;20037;-81
2022/08/22 12:47:19;;;;;;;7.90;2.20;;;37.20;44.40;;;;;;4992916;28;20083;-81
2022/08/22 12:50:15;;;;;;;5.57;1.80;;;37.40;43.90;;;;;;4989424;28;20053;-81
2022/08/22 12:52:54;;;;;;;;;;;37.50;44.00;;;;;;4973900;28;20034;-81
2022/08/22 12:55:34;;;;;;;4.75;1.85;;;37.70;42.50;;;;;;4989179;28;19914;-81
2022/08/22 12:58:39;;;;;;;9.85;2.55;;;37.80;41.90;;;;;;4988634;28;20042;-81
2022/08/22 13:01:06;;;;;;;7.18;2.00;;;37.80;41.50;;;;;;4976674;28;20390;-81
2022/08/22 13:03:55;;;;;;;3.10;2.00;;;37.80;41.50;;;;;;4991423;28;20120;-84
2022/08/22 13:06:55;;;;;;;4.50;1.70;;;37.80;41.40;;;;;;4974742;28;20036;-83
2022/08/22 13:09:29;;;;;;;3.00;1.77;;;37.80;41.60;;;;;;4991276;28;20511;-83
2022/08/22 13:12:20;;;;;;;4.00;2.03;;;37.70;41.50;;;;;;4961731;28;20042;-81
2022/08/22 13:14:48;;;;;;;3.50;1.80;;;37.70;42.50;;;;;;4974093;28;20116;-83
2022/08/22 13:17:15;;;;;;;4.35;1.80;;;37.70;42.90;;;;;;4975160;28;20037;-83
2022/08/22 13:19:54;;;;;;;3.53;1.90;;;37.70;42.80;;;;;;4957875;28;20421;-84
2022/08/22 13:22:22;;;;;;;1.80;1.20;;;37.70;41.80;;;;;;4989149;28;20034;-83
2022/08/22 13:24:50;;;;;;;3.05;1.98;;;37.60;42.10;;;;;;4987607;28;20530;-82
2022/08/22 13:27:24;;;;;;;4.60;2.13;;;37.70;41.20;;;;;;4973410;28;20042;-81
2022/08/22 13:30:01;;;;;;;6.32;2.20;;;37.90;40.10;;;;;;4985621;28;20342;-81
2022/08/22 13:32:39;;;;;;;5.57;2.10;;;37.90;39.80;;;;;;4974090;28;20616;-81
2022/08/22 13:35:06;;;;;;;6.65;2.38;;;37.90;39.70;;;;;;4979765;28;20498;-81
2022/08/22 13:37:40;;;;;;;6.63;2.60;;;37.80;39.90;;;;;;4970053;28;20034;-83
2022/08/22 13:40:24;;;;;;;6.82;2.38;;;37.80;40.20;;;;;;4973538;28;20033;-81
2022/08/22 13:43:00;;;;;;;5.05;1.80;;;37.80;39.50;;;;;;4970853;28;20041;-80
2022/08/22 13:45:26;;;;;;;6.82;2.03;;;37.60;39.90;;;;;;4985223;28;20034;-81
2022/08/22 13:47:59;;;;;;;3.63;1.58;;;37.60;39.60;;;;;;4958813;28;20512;-82
2022/08/22 13:50:30;;;;;;;5.50;2.58;;;37.60;40.60;;;;;;4972794;28;20053;-80